createdAt,value
2022-08-17T00:01:31.471Z,19.62
2022-08-17T00:04:19.416Z,19.48
2022-08-17T00:06:48.777Z,19.45
2022-08-17T00:09:18.836Z,19.42
2022-08-17T00:12:35.042Z,19.49
2022-08-17T00:14:36.091Z,19.36
2022-08-17T00:17:04.649Z,19.40
2022-08-17T00:19:32.711Z,19.49
2022-08-17T00:22:34.522Z,19.54
2022-08-17T00:24:49.743Z,19.32
2022-08-17T00:27:16.259Z,19.26
2022-08-17T00:29:42.762Z,19.13
2022-08-17T00:33:11.855Z,19.17
2022-08-17T00:34:55.692Z,19.18
2022-08-17T00:37:22.145Z,19.10
2022-08-17T00:39:48.695Z,18.96
2022-08-17T00:42:17.976Z,18.95
2022-08-17T00:44:45.363Z,19.13
2022-08-17T00:47:11.895Z,18.99
2022-08-17T00:49:38.391Z,18.89
2022-08-17T00:52:15.438Z,18.82
2022-08-17T00:54:44.890Z,18.77
2022-08-17T00:57:17.636Z,18.85
2022-08-17T01:00:01.527Z,18.91
2022-08-17T01:02:42.724Z,18.62
2022-08-17T01:05:16.472Z,18.70
2022-08-17T01:07:47.692Z,18.71
2022-08-17T01:10:59.042Z,18.58
2022-08-17T01:13:03.163Z,18.59
2022-08-17T01:15:32.761Z,18.45
2022-08-17T01:18:00.023Z,18.47
2022-08-17T01:20:26.932Z,18.42
2022-08-17T01:22:53.961Z,18.38
2022-08-17T01:25:21.582Z,18.43
2022-08-17T01:27:49.211Z,18.51
2022-08-17T01:30:57.047Z,18.40
2022-08-17T01:33:04.318Z,18.35
2022-08-17T01:35:31.713Z,18.28
2022-08-17T01:37:58.239Z,18.42
2022-08-17T01:40:35.255Z,18.25
2022-08-17T01:43:10.542Z,18.22
2022-08-17T01:45:44.240Z,18.17
2022-08-17T01:48:12.151Z,18.24
2022-08-17T01:50:42.634Z,18.21
2022-08-17T01:53:34.498Z,18.27
2022-08-17T01:56:10.627Z,18.16
2022-08-17T01:58:38.540Z,18.01
2022-08-17T02:01:06.025Z,17.96
2022-08-17T02:03:34.561Z,18.02
2022-08-17T02:06:02.008Z,18.12
2022-08-17T02:08:38.739Z,18.03
2022-08-17T02:11:11.533Z,17.89
2022-08-17T02:13:38.556Z,17.94
2022-08-17T02:16:05.496Z,17.88
2022-08-17T02:18:32.098Z,17.74
2022-08-17T02:20:58.553Z,17.72
2022-08-17T02:23:28.664Z,17.66
2022-08-17T02:25:57.640Z,17.68
2022-08-17T02:28:24.141Z,17.65
2022-08-17T02:31:00.886Z,17.72
2022-08-17T02:33:43.089Z,17.64
2022-08-17T02:36:12.109Z,17.63
2022-08-17T02:38:39.838Z,17.59
2022-08-17T02:41:06.622Z,17.61
2022-08-17T02:43:33.131Z,17.62
2022-08-17T02:45:59.594Z,17.54
2022-08-17T02:48:31.304Z,17.67
2022-08-17T02:50:59.900Z,17.61
2022-08-17T02:53:27.211Z,17.51
2022-08-17T02:55:53.860Z,17.47
2022-08-17T02:58:34.418Z,17.45
2022-08-17T03:01:04.560Z,17.52
2022-08-17T03:03:31.124Z,17.50
2022-08-17T03:05:57.909Z,17.37
2022-08-17T03:08:25.566Z,17.33
2022-08-17T03:10:52.664Z,17.37
2022-08-17T03:13:20.124Z,17.37
2022-08-17T03:15:47.612Z,17.47
2022-08-17T03:18:25.417Z,17.37
2022-08-17T03:20:58.288Z,17.40
2022-08-17T03:23:25.777Z,17.47
2022-08-17T03:25:54.074Z,17.46
2022-08-17T03:28:22.276Z,17.33
2022-08-17T03:30:51.075Z,17.44
2022-08-17T03:33:18.163Z,17.25
2022-08-17T03:35:45.086Z,17.33
2022-08-17T03:38:15.820Z,17.36
2022-08-17T03:40:58.156Z,17.32
2022-08-17T03:43:27.501Z,17.27
2022-08-17T03:46:27.775Z,17.24
2022-08-17T03:49:14.015Z,17.35
2022-08-17T03:51:58.725Z,17.28
2022-08-17T03:54:44.221Z,17.23
2022-08-17T03:57:11.941Z,17.15
2022-08-17T03:59:39.486Z,17.12
2022-08-17T04:02:34.512Z,17.14
2022-08-17T04:05:01.390Z,16.90
2022-08-17T04:07:30.450Z,16.95
2022-08-17T04:09:58.077Z,16.94
2022-08-17T04:12:25.547Z,16.95
2022-08-17T04:14:54.695Z,17.01
2022-08-17T04:17:29.268Z,17.00
2022-08-17T04:19:56.880Z,16.95
2022-08-17T04:22:30.712Z,16.99
2022-08-17T04:25:01.190Z,17.03
2022-08-17T04:27:27.684Z,17.06
2022-08-17T04:29:55.610Z,16.95
2022-08-17T04:32:58.627Z,16.97
2022-08-17T04:35:09.890Z,17.12
2022-08-17T04:37:36.398Z,17.06
2022-08-17T04:40:22.169Z,17.12
2022-08-17T04:43:05.142Z,17.20
2022-08-17T04:45:32.431Z,17.28
2022-08-17T04:48:01.182Z,17.11
2022-08-17T04:50:27.971Z,17.16
2022-08-17T04:52:55.767Z,17.19
2022-08-17T04:55:22.458Z,17.38
2022-08-17T04:57:48.982Z,17.54
2022-08-17T05:00:15.956Z,17.42
2022-08-17T05:02:50.668Z,17.51
2022-08-17T05:05:32.025Z,17.59
2022-08-17T05:08:01.140Z,17.74
2022-08-17T05:10:30.672Z,17.79
2022-08-17T05:13:02.051Z,17.93
2022-08-17T05:15:33.098Z,17.89
2022-08-17T05:18:04.038Z,18.02
2022-08-17T05:20:31.727Z,18.09
2022-08-17T05:23:01.978Z,18.30
2022-08-17T05:25:34.420Z,18.49
2022-08-17T05:28:02.850Z,18.58
2022-08-17T05:30:29.422Z,18.80
2022-08-17T05:33:08.655Z,18.89
2022-08-17T05:35:37.945Z,18.88
2022-08-17T05:38:05.199Z,19.08
2022-08-17T05:40:32.777Z,19.32
2022-08-17T05:43:12.079Z,19.41
2022-08-17T05:45:55.279Z,19.73
2022-08-17T05:48:35.464Z,19.90
2022-08-17T05:51:28.574Z,20.12
2022-08-17T05:54:21.303Z,20.23
2022-08-17T05:57:05.469Z,20.52
2022-08-17T05:59:50.177Z,20.71
2022-08-17T06:02:45.584Z,20.85
2022-08-17T06:05:51.591Z,21.09
2022-08-17T06:08:23.803Z,21.08
2022-08-17T06:11:20.053Z,21.37
2022-08-17T06:14:18.829Z,21.49
2022-08-17T06:16:55.042Z,21.57
2022-08-17T06:19:40.799Z,21.76
2022-08-17T06:22:11.974Z,21.72
2022-08-17T06:24:51.414Z,21.89
2022-08-17T06:27:41.067Z,22.01
2022-08-17T06:30:12.589Z,22.38
2022-08-17T06:32:43.607Z,22.58
2022-08-17T06:35:18.463Z,22.84
2022-08-17T06:38:04.162Z,22.85
2022-08-17T06:40:50.353Z,23.06
2022-08-17T06:43:48.167Z,23.28
2022-08-17T06:46:35.094Z,23.64
2022-08-17T06:49:26.265Z,23.87
2022-08-17T06:52:00.663Z,23.80
2022-08-17T06:54:39.651Z,24.25
2022-08-17T06:57:29.043Z,24.33
2022-08-17T07:00:04.735Z,24.43
2022-08-17T07:02:58.234Z,24.58
2022-08-17T07:05:32.134Z,24.59
2022-08-17T07:08:07.183Z,24.80
2022-08-17T07:10:44.044Z,24.87
2022-08-17T07:13:30.806Z,25.26
2022-08-17T07:16:15.563Z,25.13
2022-08-17T07:18:43.819Z,25.39
2022-08-17T07:21:26.815Z,25.66
2022-08-17T07:24:29.805Z,25.55
2022-08-17T07:27:04.924Z,26.09
2022-08-17T07:29:35.123Z,26.19
2022-08-17T07:32:01.575Z,26.42
2022-08-17T07:34:29.160Z,26.49
2022-08-17T07:37:05.466Z,26.51
2022-08-17T07:39:31.975Z,26.46
2022-08-17T07:42:03.977Z,26.58
2022-08-17T07:44:30.523Z,27.02
2022-08-17T07:47:23.439Z,26.93
2022-08-17T07:49:49.959Z,27.01
2022-08-17T07:52:50.965Z,26.81
2022-08-17T07:55:35.401Z,26.96
2022-08-17T07:58:03.369Z,27.29
2022-08-17T08:00:32.090Z,27.16
2022-08-17T08:03:31.880Z,27.49
2022-08-17T08:06:03.054Z,27.68
2022-08-17T08:08:43.298Z,27.57
2022-08-17T08:11:27.897Z,27.86
2022-08-17T08:13:54.423Z,28.02
2022-08-17T08:16:29.217Z,28.09
2022-08-17T08:18:59.098Z,27.88
2022-08-17T08:21:31.406Z,28.14
2022-08-17T08:24:30.092Z,28.31
2022-08-17T08:27:37.604Z,28.82
2022-08-17T08:30:18.487Z,28.73
2022-08-17T08:33:23.582Z,28.78
2022-08-17T08:35:58.956Z,29.14
2022-08-17T08:38:32.839Z,29.10
2022-08-17T08:41:21.275Z,28.92
2022-08-17T08:44:06.801Z,29.24
2022-08-17T08:47:29.644Z,29.27
2022-08-17T08:50:37.086Z,29.52
2022-08-17T08:53:32.085Z,29.72
2022-08-17T08:56:53.751Z,29.65
2022-08-17T08:59:45.196Z,29.60
2022-08-17T09:02:46.975Z,29.66
2022-08-17T09:05:29.238Z,29.54
2022-08-17T09:08:07.793Z,29.85
2022-08-17T09:10:52.221Z,29.58
2022-08-17T09:13:46.175Z,29.46
2022-08-17T09:16:33.276Z,30.13
2022-08-17T09:19:11.757Z,30.11
2022-08-17T09:21:52.663Z,30.23
2022-08-17T09:24:40.080Z,30.49
2022-08-17T09:27:13.442Z,30.56
2022-08-17T09:29:47.800Z,30.70
2022-08-17T09:32:20.203Z,30.57
2022-08-17T09:35:00.004Z,30.59
2022-08-17T09:38:17.099Z,30.61
2022-08-17T09:41:01.645Z,30.74
2022-08-17T09:43:56.687Z,30.81
2022-08-17T09:46:43.544Z,30.86
2022-08-17T09:49:15.001Z,31.17
2022-08-17T09:51:48.706Z,31.33
2022-08-17T09:54:41.764Z,30.89
2022-08-17T09:57:31.067Z,31.57
2022-08-17T10:00:16.747Z,31.50
2022-08-17T10:03:02.613Z,31.35
2022-08-17T10:05:39.374Z,31.54
2022-08-17T10:08:27.700Z,30.83
2022-08-17T10:11:18.996Z,31.79
2022-08-17T10:13:54.668Z,31.84
2022-08-17T10:16:41.121Z,31.50
2022-08-17T10:19:16.874Z,32.03
2022-08-17T10:22:32.559Z,32.72
2022-08-17T10:25:22.115Z,32.87
2022-08-17T10:28:05.803Z,33.24
2022-08-17T10:30:43.744Z,33.31
2022-08-17T10:33:20.483Z,33.45
2022-08-17T10:36:18.968Z,33.93
2022-08-17T10:39:05.151Z,33.88
2022-08-17T10:41:40.479Z,34.49
2022-08-17T10:44:38.694Z,35.05
2022-08-17T10:47:11.675Z,34.91
2022-08-17T10:49:48.035Z,34.87
2022-08-17T10:52:20.793Z,34.76
2022-08-17T10:55:06.367Z,35.37
2022-08-17T10:57:34.694Z,35.71
2022-08-17T11:00:10.267Z,35.12
2022-08-17T11:02:45.764Z,34.61
2022-08-17T11:05:12.259Z,35.14
2022-08-17T11:07:43.869Z,34.89
2022-08-17T11:10:52.277Z,35.24
2022-08-17T11:13:30.827Z,34.93
2022-08-17T11:16:39.067Z,35.15
2022-08-17T11:19:17.715Z,35.54
2022-08-17T11:22:03.932Z,35.52
2022-08-17T11:24:43.490Z,36.26
2022-08-17T11:27:35.378Z,35.95
2022-08-17T11:30:10.914Z,36.37
2022-08-17T11:32:48.097Z,36.55
2022-08-17T11:35:21.527Z,36.82
2022-08-17T11:38:14.069Z,36.13
2022-08-17T11:41:08.387Z,36.96
2022-08-17T11:43:59.080Z,36.82
2022-08-17T11:47:28.614Z,37.20
2022-08-17T11:50:28.385Z,35.45
2022-08-17T11:52:55.084Z,36.15
2022-08-17T11:55:38.479Z,36.99
2022-08-17T11:58:30.078Z,37.79
2022-08-17T12:01:02.010Z,37.09
2022-08-17T12:03:34.565Z,36.55
2022-08-17T12:06:19.511Z,36.51
2022-08-17T12:08:55.345Z,36.61
2022-08-17T12:11:55.542Z,37.45
2022-08-17T12:15:08.418Z,37.29
2022-08-17T12:17:41.070Z,37.90
2022-08-17T12:20:22.221Z,36.96
2022-08-17T12:23:14.758Z,36.02
2022-08-17T12:25:45.310Z,37.30
2022-08-17T12:28:32.428Z,36.84
2022-08-17T12:31:11.736Z,36.08
2022-08-17T12:33:43.701Z,35.04
2022-08-17T12:36:15.177Z,35.62
2022-08-17T12:38:50.950Z,36.44
2022-08-17T12:41:30.457Z,36.41
2022-08-17T12:44:23.300Z,36.89
2022-08-17T12:46:55.843Z,36.78
2022-08-17T12:49:28.914Z,36.84
2022-08-17T12:52:17.151Z,37.09
2022-08-17T12:54:59.530Z,36.65
2022-08-17T12:57:39.866Z,36.94
2022-08-17T13:00:17.457Z,36.34
2022-08-17T13:03:07.861Z,35.59
2022-08-17T13:05:40.975Z,35.90
2022-08-17T13:08:18.679Z,36.02
2022-08-17T13:10:55.693Z,36.10
2022-08-17T13:13:31.638Z,35.63
2022-08-17T13:16:20.563Z,36.40
2022-08-17T13:18:54.831Z,36.06
2022-08-17T13:21:26.988Z,34.18
2022-08-17T13:24:08.282Z,34.37
2022-08-17T13:26:40.237Z,35.08
2022-08-17T13:29:19.402Z,35.07
2022-08-17T13:31:52.682Z,35.08
2022-08-17T13:34:26.950Z,34.92
2022-08-17T13:37:32.804Z,34.60
2022-08-17T13:40:11.456Z,34.58
2022-08-17T13:42:52.940Z,34.24
2022-08-17T13:45:38.868Z,34.22
2022-08-17T13:48:11.957Z,34.15
2022-08-17T13:50:45.183Z,33.97
2022-08-17T13:53:26.476Z,34.06
2022-08-17T13:56:01.562Z,33.97
2022-08-17T13:58:35.204Z,34.56
2022-08-17T14:01:35.583Z,34.29
2022-08-17T14:04:05.872Z,34.57
2022-08-17T14:06:52.929Z,34.64
2022-08-17T14:09:24.071Z,34.59
2022-08-17T14:11:51.497Z,34.82
2022-08-17T14:14:18.726Z,34.54
2022-08-17T14:16:45.266Z,34.52
2022-08-17T14:19:14.449Z,34.55
2022-08-17T14:21:43.755Z,34.41
2022-08-17T14:24:19.807Z,34.60
2022-08-17T14:26:46.672Z,34.71
2022-08-17T14:29:15.362Z,34.60
2022-08-17T14:31:42.274Z,34.02
2022-08-17T14:34:15.313Z,34.62
2022-08-17T14:36:48.451Z,34.57
2022-08-17T14:39:16.687Z,34.56
2022-08-17T14:41:43.723Z,34.67
2022-08-17T14:44:13.593Z,34.10
2022-08-17T14:46:41.564Z,34.83
2022-08-17T14:49:10.913Z,34.09
2022-08-17T14:51:43.487Z,33.77
2022-08-17T14:54:11.068Z,34.29
2022-08-17T14:56:38.676Z,34.43
2022-08-17T14:59:05.489Z,34.07
2022-08-17T15:01:33.024Z,34.47
2022-08-17T15:04:00.979Z,34.78
2022-08-17T15:06:27.516Z,34.74
2022-08-17T15:08:54.491Z,34.55
2022-08-17T15:11:21.026Z,34.71
2022-08-17T15:13:52.692Z,34.73
2022-08-17T15:16:20.522Z,34.41
2022-08-17T15:18:47.159Z,34.48
2022-08-17T15:21:14.857Z,34.50
2022-08-17T15:23:41.425Z,34.25
2022-08-17T15:26:10.758Z,34.05
2022-08-17T15:28:37.791Z,33.88
2022-08-17T15:31:06.119Z,33.96
2022-08-17T15:33:32.686Z,33.71
2022-08-17T15:36:01.794Z,33.84
2022-08-17T15:38:28.873Z,33.68
2022-08-17T15:40:57.661Z,33.35
2022-08-17T15:43:32.599Z,33.40
2022-08-17T15:46:12.427Z,33.04
2022-08-17T15:48:41.899Z,32.83
2022-08-17T15:51:11.170Z,32.75
2022-08-17T15:53:39.135Z,32.93
2022-08-17T15:56:07.210Z,32.85
2022-08-17T15:58:34.955Z,32.70
2022-08-17T16:01:14.727Z,32.91
2022-08-17T16:04:04.577Z,33.05
2022-08-17T16:06:32.887Z,33.09
2022-08-17T16:09:00.513Z,33.21
2022-08-17T16:11:27.087Z,33.15
2022-08-17T16:13:54.969Z,32.99
2022-08-17T16:16:23.706Z,33.05
2022-08-17T16:18:53.547Z,33.12
2022-08-17T16:21:26.098Z,32.85
2022-08-17T16:24:12.695Z,33.05
2022-08-17T16:26:41.890Z,33.11
2022-08-17T16:29:08.743Z,33.14
2022-08-17T16:31:37.582Z,33.00
2022-08-17T16:34:17.899Z,33.11
2022-08-17T16:36:54.658Z,33.06
2022-08-17T16:39:24.377Z,33.04
2022-08-17T16:41:50.877Z,32.88
2022-08-17T16:44:21.044Z,32.85
2022-08-17T16:46:48.948Z,32.97
2022-08-17T16:49:31.581Z,32.92
2022-08-17T16:52:04.321Z,32.89
2022-08-17T16:54:30.980Z,32.73
2022-08-17T16:56:57.466Z,32.80
2022-08-17T16:59:31.195Z,32.76
2022-08-17T17:02:10.934Z,32.71
2022-08-17T17:04:50.462Z,32.69
2022-08-17T17:07:32.265Z,32.60
2022-08-17T17:10:15.903Z,32.54
2022-08-17T17:13:03.923Z,32.35
2022-08-17T17:15:42.685Z,32.28
2022-08-17T17:18:13.409Z,32.13
2022-08-17T17:21:01.184Z,32.16
2022-08-17T17:23:45.339Z,32.08
2022-08-17T17:26:28.022Z,31.86
2022-08-17T17:29:09.415Z,31.82
2022-08-17T17:31:45.175Z,31.69
2022-08-17T17:34:15.880Z,31.58
2022-08-17T17:36:48.539Z,31.35
2022-08-17T17:39:31.854Z,31.28
2022-08-17T17:42:02.681Z,31.26
2022-08-17T17:44:49.747Z,31.14
2022-08-17T17:47:16.432Z,31.00
2022-08-17T17:49:45.992Z,30.95
2022-08-17T17:52:41.026Z,30.88
2022-08-17T17:55:23.163Z,30.78
2022-08-17T17:57:49.883Z,30.70
2022-08-17T18:00:22.006Z,30.62
2022-08-17T18:03:39.654Z,30.63
2022-08-17T18:06:18.726Z,30.53
2022-08-17T18:09:15.626Z,30.13
2022-08-17T18:12:06.514Z,30.06
2022-08-17T18:14:54.242Z,29.72
2022-08-17T18:17:20.797Z,29.76
2022-08-17T18:19:48.298Z,29.75
2022-08-17T18:22:22.204Z,29.75
2022-08-17T18:24:56.055Z,29.46
2022-08-17T18:27:25.442Z,29.55
2022-08-17T18:29:54.869Z,29.52
2022-08-17T18:32:26.872Z,29.41
2022-08-17T18:35:15.248Z,29.32
2022-08-17T18:37:46.863Z,29.33
2022-08-17T18:40:16.430Z,29.23
2022-08-17T18:42:58.967Z,29.26
2022-08-17T18:45:40.784Z,29.17
2022-08-17T18:48:33.442Z,29.06
2022-08-17T18:51:20.333Z,28.96
2022-08-17T18:54:14.505Z,28.91
2022-08-17T18:56:51.272Z,28.80
2022-08-17T18:59:29.891Z,28.75
2022-08-17T19:01:59.182Z,28.56
2022-08-17T19:04:34.603Z,28.67
2022-08-17T19:07:25.666Z,28.48
2022-08-17T19:10:08.877Z,28.39
2022-08-17T19:13:12.580Z,28.48
2022-08-17T19:16:11.716Z,28.35
2022-08-17T19:18:38.990Z,28.41
2022-08-17T19:21:30.662Z,28.29
2022-08-17T19:24:07.062Z,28.25
2022-08-17T19:26:53.715Z,28.33
2022-08-17T19:29:42.214Z,28.10
2022-08-17T19:32:10.582Z,28.15
2022-08-17T19:34:39.349Z,28.01
2022-08-17T19:37:17.594Z,27.94
2022-08-17T19:39:50.104Z,27.86
2022-08-17T19:42:41.226Z,27.93
2022-08-17T19:45:24.281Z,27.90
2022-08-17T19:48:15.410Z,27.72
2022-08-17T19:51:20.475Z,27.69
2022-08-17T19:54:06.231Z,27.54
2022-08-17T19:56:57.276Z,27.68
2022-08-17T19:59:48.871Z,27.70
2022-08-17T20:02:20.632Z,27.44
2022-08-17T20:04:50.521Z,27.34
2022-08-17T20:07:40.487Z,27.41
2022-08-17T20:10:12.991Z,27.39
2022-08-17T20:12:44.560Z,27.45
2022-08-17T20:15:27.196Z,27.36
2022-08-17T20:17:58.700Z,27.34
2022-08-17T20:20:47.066Z,27.39
2022-08-17T20:23:49.026Z,27.43
2022-08-17T20:26:21.955Z,27.43
2022-08-17T20:29:13.923Z,27.36
2022-08-17T20:32:13.464Z,27.29
2022-08-17T20:34:40.017Z,27.21
2022-08-17T20:37:15.645Z,27.19
2022-08-17T20:40:05.753Z,27.29
2022-08-17T20:42:33.928Z,27.27
2022-08-17T20:45:21.743Z,27.20
2022-08-17T20:48:18.477Z,27.21
2022-08-17T20:50:43.999Z,27.28
2022-08-17T20:53:15.037Z,27.25
2022-08-17T20:55:51.659Z,27.26
2022-08-17T20:58:42.120Z,27.23
2022-08-17T21:01:16.120Z,27.11
2022-08-17T21:03:50.613Z,27.09
2022-08-17T21:06:21.042Z,27.06
2022-08-17T21:08:53.883Z,27.12
2022-08-17T21:12:03.351Z,27.02
2022-08-17T21:14:26.747Z,26.98
2022-08-17T21:17:18.555Z,27.08
2022-08-17T21:20:22.925Z,27.10
2022-08-17T21:22:55.552Z,27.11
2022-08-17T21:25:40.359Z,27.12
2022-08-17T21:28:10.715Z,27.07
2022-08-17T21:30:39.131Z,27.06
2022-08-17T21:33:20.160Z,27.07
2022-08-17T21:35:59.090Z,27.06
2022-08-17T21:38:41.728Z,27.18
2022-08-17T21:41:20.602Z,27.07
2022-08-17T21:43:50.310Z,27.05
2022-08-17T21:46:29.019Z,27.01
2022-08-17T21:49:02.677Z,26.81
2022-08-17T21:51:40.972Z,26.64
2022-08-17T21:54:25.264Z,26.58
2022-08-17T21:56:52.215Z,26.48
2022-08-17T21:59:19.457Z,26.39
2022-08-17T22:01:57.647Z,26.06
2022-08-17T22:04:42.143Z,25.99
2022-08-17T22:07:11.850Z,26.07
2022-08-17T22:09:47.828Z,26.07
2022-08-17T22:12:20.103Z,26.14
2022-08-17T22:14:54.184Z,26.08
2022-08-17T22:17:27.146Z,26.02
2022-08-17T22:20:14.450Z,26.14
2022-08-17T22:23:08.720Z,25.89
2022-08-17T22:25:40.727Z,25.95
2022-08-17T22:28:09.779Z,25.32
2022-08-17T22:30:58.712Z,25.05
2022-08-17T22:33:37.024Z,24.72
2022-08-17T22:36:29.867Z,24.98
2022-08-17T22:38:58.683Z,24.82
2022-08-17T22:41:31.998Z,24.92
2022-08-17T22:44:07.291Z,24.75
2022-08-17T22:46:39.531Z,24.63
2022-08-17T22:49:06.538Z,24.29
2022-08-17T22:51:33.270Z,24.10
2022-08-17T22:54:35.293Z,24.01
2022-08-17T22:57:22.719Z,23.84
2022-08-17T22:59:52.695Z,23.73
2022-08-17T23:02:23.779Z,23.25
2022-08-17T23:05:10.128Z,22.87
2022-08-17T23:07:36.879Z,22.91
2022-08-17T23:10:06.474Z,22.63
2022-08-17T23:12:38.912Z,22.24
2022-08-17T23:15:12.657Z,21.72
2022-08-17T23:17:39.240Z,21.75
2022-08-17T23:20:09.129Z,21.44
2022-08-17T23:22:38.082Z,21.41
2022-08-17T23:25:27.256Z,21.19
2022-08-17T23:27:54.457Z,20.81
2022-08-17T23:30:21.404Z,20.86
2022-08-17T23:32:53.890Z,20.47
2022-08-17T23:35:39.405Z,20.60
2022-08-17T23:38:07.603Z,20.73
2022-08-17T23:40:34.524Z,20.59
2022-08-17T23:43:01.029Z,20.31
2022-08-17T23:45:32.517Z,20.08
2022-08-17T23:47:58.974Z,20.36
2022-08-17T23:50:25.473Z,20.11
2022-08-17T23:52:57.705Z,20.17
2022-08-17T23:55:24.211Z,20.32
2022-08-17T23:57:50.865Z,20.33
